sensor_id;sensor_type;location;lat;lon;timestamp;pressure;altitude;pressure_sealevel;temperature
80422;BMP280;69763;50.182;9.144;2023-08-30T00:00:15;99401.34;;;8.91
80422;BMP280;69763;50.182;9.144;2023-08-30T00:02:41;99408.75;;;9.03
80422;BMP280;69763;50.182;9.144;2023-08-30T00:05:07;99404.81;;;9.04
80422;BMP280;69763;50.182;9.144;2023-08-30T00:07:34;99407.41;;;8.97
80422;BMP280;69763;50.182;9.144;2023-08-30T00:09:59;99404.59;;;8.89
80422;BMP280;69763;50.182;9.144;2023-08-30T00:12:25;99400.50;;;8.82
80422;BMP280;69763;50.182;9.144;2023-08-30T00:14:50;99402.34;;;8.74
80422;BMP280;69763;50.182;9.144;2023-08-30T00:17:17;99399.41;;;8.72
80422;BMP280;69763;50.182;9.144;2023-08-30T00:19:42;99397.44;;;8.73
80422;BMP280;69763;50.182;9.144;2023-08-30T00:22:08;99400.78;;;8.79
80422;BMP280;69763;50.182;9.144;2023-08-30T00:24:35;99406.84;;;8.85
80422;BMP280;69763;50.182;9.144;2023-08-30T00:27:00;99405.47;;;8.92
80422;BMP280;69763;50.182;9.144;2023-08-30T00:29:26;99399.28;;;8.97
80422;BMP280;69763;50.182;9.144;2023-08-30T00:31:51;99409.09;;;9.13
80422;BMP280;69763;50.182;9.144;2023-08-30T00:34:17;99404.84;;;9.17
80422;BMP280;69763;50.182;9.144;2023-08-30T00:36:42;99401.34;;;9.22
80422;BMP280;69763;50.182;9.144;2023-08-30T00:39:08;99397.09;;;9.27
80422;BMP280;69763;50.182;9.144;2023-08-30T00:41:35;99391.69;;;9.40
80422;BMP280;69763;50.182;9.144;2023-08-30T00:44:00;99389.41;;;9.44
80422;BMP280;69763;50.182;9.144;2023-08-30T00:46:26;99396.38;;;9.40
80422;BMP280;69763;50.182;9.144;2023-08-30T00:48:52;99387.41;;;9.32
80422;BMP280;69763;50.182;9.144;2023-08-30T00:51:17;99381.69;;;9.22
80422;BMP280;69763;50.182;9.144;2023-08-30T00:53:44;99389.13;;;9.16
80422;BMP280;69763;50.182;9.144;2023-08-30T00:56:09;99389.00;;;9.08
80422;BMP280;69763;50.182;9.144;2023-08-30T00:58:37;99380.78;;;9.01
80422;BMP280;69763;50.182;9.144;2023-08-30T01:01:03;99373.91;;;9.00
80422;BMP280;69763;50.182;9.144;2023-08-30T01:03:29;99383.28;;;8.99
80422;BMP280;69763;50.182;9.144;2023-08-30T01:05:54;99378.91;;;8.96
80422;BMP280;69763;50.182;9.144;2023-08-30T01:08:20;99370.56;;;8.94
80422;BMP280;69763;50.182;9.144;2023-08-30T01:10:52;99373.63;;;8.90
80422;BMP280;69763;50.182;9.144;2023-08-30T01:13:19;99372.94;;;8.84
80422;BMP280;69763;50.182;9.144;2023-08-30T01:15:48;99380.19;;;8.76
80422;BMP280;69763;50.182;9.144;2023-08-30T01:18:16;99376.13;;;8.69
80422;BMP280;69763;50.182;9.144;2023-08-30T01:20:44;99367.81;;;8.67
80422;BMP280;69763;50.182;9.144;2023-08-30T01:23:18;99370.19;;;8.71
80422;BMP280;69763;50.182;9.144;2023-08-30T01:25:53;99364.59;;;8.69
80422;BMP280;69763;50.182;9.144;2023-08-30T01:28:23;99362.91;;;8.66
80422;BMP280;69763;50.182;9.144;2023-08-30T01:30:50;99366.19;;;8.77
80422;BMP280;69763;50.182;9.144;2023-08-30T01:33:17;99355.22;;;8.89
80422;BMP280;69763;50.182;9.144;2023-08-30T01:35:44;99360.44;;;9.13
80422;BMP280;69763;50.182;9.144;2023-08-30T01:38:10;99364.41;;;9.25
80422;BMP280;69763;50.182;9.144;2023-08-30T01:40:39;99364.53;;;9.33
80422;BMP280;69763;50.182;9.144;2023-08-30T01:43:06;99363.41;;;9.41
80422;BMP280;69763;50.182;9.144;2023-08-30T01:45:38;99356.31;;;9.51
80422;BMP280;69763;50.182;9.144;2023-08-30T01:48:06;99348.09;;;9.57
80422;BMP280;69763;50.182;9.144;2023-08-30T01:50:33;99351.31;;;9.68
80422;BMP280;69763;50.182;9.144;2023-08-30T01:52:59;99343.09;;;9.74
80422;BMP280;69763;50.182;9.144;2023-08-30T01:55:26;99328.72;;;9.79
80422;BMP280;69763;50.182;9.144;2023-08-30T01:57:53;99336.84;;;9.79
80422;BMP280;69763;50.182;9.144;2023-08-30T02:00:19;99337.78;;;9.82
80422;BMP280;69763;50.182;9.144;2023-08-30T02:02:47;99337.25;;;9.83
80422;BMP280;69763;50.182;9.144;2023-08-30T02:05:14;99327.69;;;9.82
80422;BMP280;69763;50.182;9.144;2023-08-30T02:07:45;99338.69;;;9.84
80422;BMP280;69763;50.182;9.144;2023-08-30T02:10:17;99348.28;;;9.85
80422;BMP280;69763;50.182;9.144;2023-08-30T02:12:47;99347.78;;;9.74
80422;BMP280;69763;50.182;9.144;2023-08-30T02:15:13;99355.88;;;9.60
80422;BMP280;69763;50.182;9.144;2023-08-30T02:17:39;99359.22;;;9.53
80422;BMP280;69763;50.182;9.144;2023-08-30T02:20:10;99357.56;;;9.50
80422;BMP280;69763;50.182;9.144;2023-08-30T02:22:36;99355.38;;;9.49
80422;BMP280;69763;50.182;9.144;2023-08-30T02:25:01;99354.00;;;9.55
80422;BMP280;69763;50.182;9.144;2023-08-30T02:27:26;99350.38;;;9.53
80422;BMP280;69763;50.182;9.144;2023-08-30T02:29:52;99355.47;;;9.43
80422;BMP280;69763;50.182;9.144;2023-08-30T02:32:17;99353.72;;;9.33
80422;BMP280;69763;50.182;9.144;2023-08-30T02:34:43;99361.72;;;9.25
80422;BMP280;69763;50.182;9.144;2023-08-30T02:37:10;99352.69;;;9.22
80422;BMP280;69763;50.182;9.144;2023-08-30T02:39:35;99358.88;;;9.17
80422;BMP280;69763;50.182;9.144;2023-08-30T02:42:00;99350.56;;;9.15
80422;BMP280;69763;50.182;9.144;2023-08-30T02:44:26;99359.41;;;9.16
80422;BMP280;69763;50.182;9.144;2023-08-30T02:46:51;99355.22;;;9.15
80422;BMP280;69763;50.182;9.144;2023-08-30T02:49:17;99353.56;;;9.12
80422;BMP280;69763;50.182;9.144;2023-08-30T02:51:43;99355.44;;;9.17
80422;BMP280;69763;50.182;9.144;2023-08-30T02:54:09;99352.69;;;9.22
80422;BMP280;69763;50.182;9.144;2023-08-30T02:56:35;99347.91;;;9.42
80422;BMP280;69763;50.182;9.144;2023-08-30T02:59:00;99342.47;;;9.55
80422;BMP280;69763;50.182;9.144;2023-08-30T03:01:26;99340.06;;;9.64
80422;BMP280;69763;50.182;9.144;2023-08-30T03:03:51;99344.34;;;9.73
80422;BMP280;69763;50.182;9.144;2023-08-30T03:06:17;99337.97;;;9.84
80422;BMP280;69763;50.182;9.144;2023-08-30T03:08:42;99337.16;;;9.89
80422;BMP280;69763;50.182;9.144;2023-08-30T03:11:10;99336.81;;;9.92
80422;BMP280;69763;50.182;9.144;2023-08-30T03:13:36;99335.03;;;9.95
80422;BMP280;69763;50.182;9.144;2023-08-30T03:16:02;99334.13;;;9.92
80422;BMP280;69763;50.182;9.144;2023-08-30T03:18:27;99333.38;;;9.92
80422;BMP280;69763;50.182;9.144;2023-08-30T03:20:59;99339.53;;;9.92
80422;BMP280;69763;50.182;9.144;2023-08-30T03:23:26;99340.97;;;9.93
80422;BMP280;69763;50.182;9.144;2023-08-30T03:25:51;99339.72;;;9.94
80422;BMP280;69763;50.182;9.144;2023-08-30T03:28:18;99337.00;;;9.94
80422;BMP280;69763;50.182;9.144;2023-08-30T03:30:43;99331.91;;;9.91
80422;BMP280;69763;50.182;9.144;2023-08-30T03:33:09;99332.66;;;9.91
80422;BMP280;69763;50.182;9.144;2023-08-30T03:35:34;99341.28;;;9.90
80422;BMP280;69763;50.182;9.144;2023-08-30T03:38:00;99333.50;;;9.86
80422;BMP280;69763;50.182;9.144;2023-08-30T03:40:25;99333.16;;;9.90
80422;BMP280;69763;50.182;9.144;2023-08-30T03:42:51;99334.84;;;9.93
80422;BMP280;69763;50.182;9.144;2023-08-30T03:45:19;99333.78;;;9.96
80422;BMP280;69763;50.182;9.144;2023-08-30T03:47:45;99333.22;;;9.97
80422;BMP280;69763;50.182;9.144;2023-08-30T03:50:10;99330.75;;;9.99
80422;BMP280;69763;50.182;9.144;2023-08-30T03:52:36;99333.03;;;9.95
80422;BMP280;69763;50.182;9.144;2023-08-30T03:55:01;99342.97;;;9.93
80422;BMP280;69763;50.182;9.144;2023-08-30T03:57:26;99335.22;;;9.97
80422;BMP280;69763;50.182;9.144;2023-08-30T03:59:52;99333.66;;;10.01
80422;BMP280;69763;50.182;9.144;2023-08-30T04:02:19;99337.81;;;10.02
80422;BMP280;69763;50.182;9.144;2023-08-30T04:04:46;99329.38;;;10.06
80422;BMP280;69763;50.182;9.144;2023-08-30T04:07:12;99330.09;;;10.06
80422;BMP280;69763;50.182;9.144;2023-08-30T04:09:37;99327.38;;;10.06
80422;BMP280;69763;50.182;9.144;2023-08-30T04:12:03;99330.31;;;10.08
80422;BMP280;69763;50.182;9.144;2023-08-30T04:14:29;99325.41;;;10.07
80422;BMP280;69763;50.182;9.144;2023-08-30T04:16:54;99326.44;;;10.04
80422;BMP280;69763;50.182;9.144;2023-08-30T04:19:21;99337.81;;;10.02
80422;BMP280;69763;50.182;9.144;2023-08-30T04:21:47;99330.94;;;10.01
80422;BMP280;69763;50.182;9.144;2023-08-30T04:24:12;99326.25;;;10.02
80422;BMP280;69763;50.182;9.144;2023-08-30T04:26:38;99324.69;;;10.06
80422;BMP280;69763;50.182;9.144;2023-08-30T04:29:03;99328.84;;;10.07
80422;BMP280;69763;50.182;9.144;2023-08-30T04:31:29;99330.31;;;10.08
80422;BMP280;69763;50.182;9.144;2023-08-30T04:33:54;99323.44;;;10.07
80422;BMP280;69763;50.182;9.144;2023-08-30T04:36:21;99325.63;;;10.09
80422;BMP280;69763;50.182;9.144;2023-08-30T04:38:47;99333.94;;;10.11
80422;BMP280;69763;50.182;9.144;2023-08-30T04:41:12;99334.66;;;10.12
80422;BMP280;69763;50.182;9.144;2023-08-30T04:43:38;99330.53;;;10.11
80422;BMP280;69763;50.182;9.144;2023-08-30T04:46:03;99335.19;;;10.10
80422;BMP280;69763;50.182;9.144;2023-08-30T04:48:29;99335.38;;;10.12
80422;BMP280;69763;50.182;9.144;2023-08-30T04:51:01;99327.69;;;10.16
80422;BMP280;69763;50.182;9.144;2023-08-30T04:53:28;99321.94;;;10.20
80422;BMP280;69763;50.182;9.144;2023-08-30T04:55:54;99325.06;;;10.24
80422;BMP280;69763;50.182;9.144;2023-08-30T04:58:19;99322.53;;;10.26
80422;BMP280;69763;50.182;9.144;2023-08-30T05:00:44;99324.72;;;10.27
80422;BMP280;69763;50.182;9.144;2023-08-30T05:03:10;99320.25;;;10.30
80422;BMP280;69763;50.182;9.144;2023-08-30T05:05:36;99330.00;;;10.33
80422;BMP280;69763;50.182;9.144;2023-08-30T05:08:02;99328.25;;;10.35
80422;BMP280;69763;50.182;9.144;2023-08-30T05:10:29;99322.50;;;10.39
80422;BMP280;69763;50.182;9.144;2023-08-30T05:12:54;99324.16;;;10.42
80422;BMP280;69763;50.182;9.144;2023-08-30T05:15:20;99325.09;;;10.44
80422;BMP280;69763;50.182;9.144;2023-08-30T05:17:45;99326.19;;;10.49
80422;BMP280;69763;50.182;9.144;2023-08-30T05:20:11;99332.19;;;10.55
80422;BMP280;69763;50.182;9.144;2023-08-30T05:22:36;99334.78;;;10.61
80422;BMP280;69763;50.182;9.144;2023-08-30T05:25:02;99334.13;;;10.68
80422;BMP280;69763;50.182;9.144;2023-08-30T05:27:28;99331.28;;;10.73
80422;BMP280;69763;50.182;9.144;2023-08-30T05:29:54;99333.88;;;10.79
80422;BMP280;69763;50.182;9.144;2023-08-30T05:32:19;99335.72;;;10.84
80422;BMP280;69763;50.182;9.144;2023-08-30T05:34:44;99343.38;;;10.93
80422;BMP280;69763;50.182;9.144;2023-08-30T05:37:10;99335.97;;;11.01
80422;BMP280;69763;50.182;9.144;2023-08-30T05:39:35;99339.41;;;11.02
80422;BMP280;69763;50.182;9.144;2023-08-30T05:42:00;99335.13;;;11.06
80422;BMP280;69763;50.182;9.144;2023-08-30T05:44:28;99332.59;;;11.08
80422;BMP280;69763;50.182;9.144;2023-08-30T05:46:53;99337.34;;;11.15
80422;BMP280;69763;50.182;9.144;2023-08-30T05:49:19;99342.25;;;11.17
80422;BMP280;69763;50.182;9.144;2023-08-30T05:51:44;99341.00;;;11.18
80422;BMP280;69763;50.182;9.144;2023-08-30T05:54:10;99329.06;;;11.21
80422;BMP280;69763;50.182;9.144;2023-08-30T05:56:35;99325.09;;;11.22
80422;BMP280;69763;50.182;9.144;2023-08-30T05:59:01;99321.66;;;11.21
80422;BMP280;69763;50.182;9.144;2023-08-30T06:01:28;99316.44;;;11.23
80422;BMP280;69763;50.182;9.144;2023-08-30T06:03:53;99323.31;;;11.24
80422;BMP280;69763;50.182;9.144;2023-08-30T06:06:18;99320.78;;;11.26
80422;BMP280;69763;50.182;9.144;2023-08-30T06:08:44;99323.91;;;11.30
80422;BMP280;69763;50.182;9.144;2023-08-30T06:11:09;99323.00;;;11.36
80422;BMP280;69763;50.182;9.144;2023-08-30T06:13:34;99324.00;;;11.46
80422;BMP280;69763;50.182;9.144;2023-08-30T06:16:00;99319.47;;;11.56
80422;BMP280;69763;50.182;9.144;2023-08-30T06:18:30;99322.25;;;11.71
80422;BMP280;69763;50.182;9.144;2023-08-30T06:20:55;99325.03;;;11.86
80422;BMP280;69763;50.182;9.144;2023-08-30T06:23:21;99323.97;;;11.97
80422;BMP280;69763;50.182;9.144;2023-08-30T06:25:53;99316.56;;;12.12
80422;BMP280;69763;50.182;9.144;2023-08-30T06:28:18;99316.75;;;12.22
80422;BMP280;69763;50.182;9.144;2023-08-30T06:30:44;99315.53;;;12.38
80422;BMP280;69763;50.182;9.144;2023-08-30T06:33:09;99305.88;;;12.75
80422;BMP280;69763;50.182;9.144;2023-08-30T06:35:37;99313.28;;;12.97
80422;BMP280;69763;50.182;9.144;2023-08-30T06:38:03;99307.56;;;13.33
80422;BMP280;69763;50.182;9.144;2023-08-30T06:40:28;99312.28;;;13.73
80422;BMP280;69763;50.182;9.144;2023-08-30T06:42:53;99313.56;;;14.04
80422;BMP280;69763;50.182;9.144;2023-08-30T06:45:19;99307.09;;;14.42
80422;BMP280;69763;50.182;9.144;2023-08-30T06:47:44;99306.56;;;14.60
80422;BMP280;69763;50.182;9.144;2023-08-30T06:50:10;99305.03;;;14.67
80422;BMP280;69763;50.182;9.144;2023-08-30T06:52:36;99307.19;;;14.68
80422;BMP280;69763;50.182;9.144;2023-08-30T06:55:02;99302.16;;;14.65
80422;BMP280;69763;50.182;9.144;2023-08-30T06:57:27;99295.00;;;14.52
80422;BMP280;69763;50.182;9.144;2023-08-30T06:59:53;99302.69;;;14.46
80422;BMP280;69763;50.182;9.144;2023-08-30T07:02:18;99297.22;;;14.46
80422;BMP280;69763;50.182;9.144;2023-08-30T07:04:44;99298.63;;;14.55
80422;BMP280;69763;50.182;9.144;2023-08-30T07:07:09;99297.28;;;14.81
80422;BMP280;69763;50.182;9.144;2023-08-30T07:09:36;99290.50;;;15.16
80422;BMP280;69763;50.182;9.144;2023-08-30T07:12:01;99290.38;;;15.41
80422;BMP280;69763;50.182;9.144;2023-08-30T07:14:27;99276.28;;;15.71
80422;BMP280;69763;50.182;9.144;2023-08-30T07:16:52;99285.22;;;16.08
80422;BMP280;69763;50.182;9.144;2023-08-30T07:19:19;99289.84;;;16.34
80422;BMP280;69763;50.182;9.144;2023-08-30T07:21:44;99273.47;;;16.73
80422;BMP280;69763;50.182;9.144;2023-08-30T07:24:10;99271.31;;;16.71
80422;BMP280;69763;50.182;9.144;2023-08-30T07:26:37;99267.72;;;16.88
80422;BMP280;69763;50.182;9.144;2023-08-30T07:29:03;99268.97;;;17.16
80422;BMP280;69763;50.182;9.144;2023-08-30T07:31:29;99272.09;;;17.31
80422;BMP280;69763;50.182;9.144;2023-08-30T07:33:54;99271.63;;;17.44
80422;BMP280;69763;50.182;9.144;2023-08-30T07:36:20;99277.16;;;17.66
80422;BMP280;69763;50.182;9.144;2023-08-30T07:38:45;99269.28;;;17.81
80422;BMP280;69763;50.182;9.144;2023-08-30T07:41:10;99275.00;;;17.95
80422;BMP280;69763;50.182;9.144;2023-08-30T07:43:37;99279.59;;;18.02
80422;BMP280;69763;50.182;9.144;2023-08-30T07:46:03;99282.53;;;18.16
80422;BMP280;69763;50.182;9.144;2023-08-30T07:48:29;99280.22;;;18.33
80422;BMP280;69763;50.182;9.144;2023-08-30T07:50:55;99275.19;;;18.51
80422;BMP280;69763;50.182;9.144;2023-08-30T07:53:21;99286.00;;;18.70
80422;BMP280;69763;50.182;9.144;2023-08-30T07:55:48;99281.66;;;18.88
80422;BMP280;69763;50.182;9.144;2023-08-30T07:58:13;99284.31;;;18.98
80422;BMP280;69763;50.182;9.144;2023-08-30T08:00:40;99288.38;;;19.09
80422;BMP280;69763;50.182;9.144;2023-08-30T08:03:06;99297.63;;;19.25
80422;BMP280;69763;50.182;9.144;2023-08-30T08:05:32;99294.16;;;19.36
80422;BMP280;69763;50.182;9.144;2023-08-30T08:07:59;99295.97;;;19.43
80422;BMP280;69763;50.182;9.144;2023-08-30T08:10:25;99294.16;;;19.48
80422;BMP280;69763;50.182;9.144;2023-08-30T08:12:50;99300.75;;;19.54
80422;BMP280;69763;50.182;9.144;2023-08-30T08:15:17;99296.44;;;19.51
80422;BMP280;69763;50.182;9.144;2023-08-30T08:17:48;99298.81;;;19.33
80422;BMP280;69763;50.182;9.144;2023-08-30T08:20:15;99301.53;;;19.10
80422;BMP280;69763;50.182;9.144;2023-08-30T08:22:41;99295.44;;;19.12
80422;BMP280;69763;50.182;9.144;2023-08-30T08:25:07;99295.13;;;19.40
80422;BMP280;69763;50.182;9.144;2023-08-30T08:27:32;99302.44;;;19.71
80422;BMP280;69763;50.182;9.144;2023-08-30T08:29:57;99299.75;;;19.96
80422;BMP280;69763;50.182;9.144;2023-08-30T08:32:23;99297.13;;;19.98
80422;BMP280;69763;50.182;9.144;2023-08-30T08:34:50;99299.00;;;20.07
80422;BMP280;69763;50.182;9.144;2023-08-30T08:37:15;99299.28;;;20.36
80422;BMP280;69763;50.182;9.144;2023-08-30T08:39:40;99292.50;;;20.63
80422;BMP280;69763;50.182;9.144;2023-08-30T08:42:06;99284.41;;;20.78
80422;BMP280;69763;50.182;9.144;2023-08-30T08:44:39;99283.19;;;20.95
80422;BMP280;69763;50.182;9.144;2023-08-30T08:47:05;99294.88;;;21.07
80422;BMP280;69763;50.182;9.144;2023-08-30T08:49:31;99285.22;;;21.20
80422;BMP280;69763;50.182;9.144;2023-08-30T08:51:57;99277.38;;;21.42
80422;BMP280;69763;50.182;9.144;2023-08-30T08:54:24;99275.63;;;21.75
80422;BMP280;69763;50.182;9.144;2023-08-30T08:56:50;99276.88;;;22.02
80422;BMP280;69763;50.182;9.144;2023-08-30T08:59:16;99275.53;;;22.16
80422;BMP280;69763;50.182;9.144;2023-08-30T09:01:42;99275.69;;;22.34
80422;BMP280;69763;50.182;9.144;2023-08-30T09:04:08;99276.41;;;22.50
80422;BMP280;69763;50.182;9.144;2023-08-30T09:06:34;99269.91;;;22.43
80422;BMP280;69763;50.182;9.144;2023-08-30T09:09:02;99277.97;;;22.39
80422;BMP280;69763;50.182;9.144;2023-08-30T09:11:27;99274.38;;;22.35
80422;BMP280;69763;50.182;9.144;2023-08-30T09:13:53;99275.94;;;22.24
80422;BMP280;69763;50.182;9.144;2023-08-30T09:16:18;99281.25;;;22.20
80422;BMP280;69763;50.182;9.144;2023-08-30T09:18:44;99275.22;;;22.24
80422;BMP280;69763;50.182;9.144;2023-08-30T09:21:10;99273.81;;;22.38
80422;BMP280;69763;50.182;9.144;2023-08-30T09:23:36;99268.38;;;22.40
80422;BMP280;69763;50.182;9.144;2023-08-30T09:26:03;99265.88;;;22.47
80422;BMP280;69763;50.182;9.144;2023-08-30T09:28:41;99259.81;;;22.64
80422;BMP280;69763;50.182;9.144;2023-08-30T09:31:06;99257.97;;;22.84
80422;BMP280;69763;50.182;9.144;2023-08-30T09:33:32;99259.81;;;22.95
80422;BMP280;69763;50.182;9.144;2023-08-30T09:35:58;99257.13;;;23.28
80422;BMP280;69763;50.182;9.144;2023-08-30T09:38:25;99256.44;;;23.79
80422;BMP280;69763;50.182;9.144;2023-08-30T09:40:50;99260.16;;;24.03
80422;BMP280;69763;50.182;9.144;2023-08-30T09:43:19;99255.34;;;24.21
80422;BMP280;69763;50.182;9.144;2023-08-30T09:45:45;99251.63;;;24.52
80422;BMP280;69763;50.182;9.144;2023-08-30T09:48:11;99253.03;;;24.90
80422;BMP280;69763;50.182;9.144;2023-08-30T09:50:37;99251.16;;;24.97
80422;BMP280;69763;50.182;9.144;2023-08-30T09:53:06;99240.88;;;24.80
80422;BMP280;69763;50.182;9.144;2023-08-30T09:55:32;99244.47;;;24.45
80422;BMP280;69763;50.182;9.144;2023-08-30T09:58:04;99232.63;;;23.89
80422;BMP280;69763;50.182;9.144;2023-08-30T10:00:31;99242.03;;;23.31
80422;BMP280;69763;50.182;9.144;2023-08-30T10:02:58;99245.09;;;22.90
80422;BMP280;69763;50.182;9.144;2023-08-30T10:05:25;99244.31;;;22.43
80422;BMP280;69763;50.182;9.144;2023-08-30T10:07:52;99244.72;;;21.92
80422;BMP280;69763;50.182;9.144;2023-08-30T10:10:19;99243.16;;;21.74
80422;BMP280;69763;50.182;9.144;2023-08-30T10:12:46;99232.91;;;21.76
80422;BMP280;69763;50.182;9.144;2023-08-30T10:15:16;99229.75;;;22.11
80422;BMP280;69763;50.182;9.144;2023-08-30T10:17:45;99227.31;;;22.33
80422;BMP280;69763;50.182;9.144;2023-08-30T10:20:11;99221.97;;;22.37
80422;BMP280;69763;50.182;9.144;2023-08-30T10:22:38;99218.50;;;22.21
80422;BMP280;69763;50.182;9.144;2023-08-30T10:25:10;99210.94;;;22.08
80422;BMP280;69763;50.182;9.144;2023-08-30T10:27:38;99205.94;;;22.18
80422;BMP280;69763;50.182;9.144;2023-08-30T10:30:07;99206.50;;;22.61
80422;BMP280;69763;50.182;9.144;2023-08-30T10:32:38;99202.75;;;23.02
80422;BMP280;69763;50.182;9.144;2023-08-30T10:35:06;99195.91;;;23.54
80422;BMP280;69763;50.182;9.144;2023-08-30T10:37:31;99199.44;;;23.89
80422;BMP280;69763;50.182;9.144;2023-08-30T10:39:59;99195.28;;;24.26
80422;BMP280;69763;50.182;9.144;2023-08-30T10:42:25;99200.00;;;24.41
80422;BMP280;69763;50.182;9.144;2023-08-30T10:44:51;99190.06;;;24.34
80422;BMP280;69763;50.182;9.144;2023-08-30T10:47:20;99189.44;;;24.00
80422;BMP280;69763;50.182;9.144;2023-08-30T10:49:46;99196.81;;;23.93
80422;BMP280;69763;50.182;9.144;2023-08-30T10:52:13;99193.47;;;24.15
80422;BMP280;69763;50.182;9.144;2023-08-30T10:54:39;99192.50;;;24.26
80422;BMP280;69763;50.182;9.144;2023-08-30T10:57:04;99186.19;;;24.23
80422;BMP280;69763;50.182;9.144;2023-08-30T10:59:30;99190.25;;;24.02
80422;BMP280;69763;50.182;9.144;2023-08-30T11:01:55;99185.06;;;24.30
80422;BMP280;69763;50.182;9.144;2023-08-30T11:04:21;99185.06;;;24.50
80422;BMP280;69763;50.182;9.144;2023-08-30T11:06:48;99184.03;;;24.59
80422;BMP280;69763;50.182;9.144;2023-08-30T11:09:17;99179.47;;;24.68
80422;BMP280;69763;50.182;9.144;2023-08-30T11:11:44;99170.91;;;24.79
80422;BMP280;69763;50.182;9.144;2023-08-30T11:14:10;99171.41;;;24.74
80422;BMP280;69763;50.182;9.144;2023-08-30T11:16:36;99172.19;;;24.76
80422;BMP280;69763;50.182;9.144;2023-08-30T11:19:01;99165.06;;;24.71
80422;BMP280;69763;50.182;9.144;2023-08-30T11:21:26;99158.53;;;24.82
80422;BMP280;69763;50.182;9.144;2023-08-30T11:23:52;99166.84;;;25.24
80422;BMP280;69763;50.182;9.144;2023-08-30T11:26:19;99164.88;;;25.50
80422;BMP280;69763;50.182;9.144;2023-08-30T11:28:44;99152.00;;;25.37
80422;BMP280;69763;50.182;9.144;2023-08-30T11:31:09;99156.97;;;25.19
80422;BMP280;69763;50.182;9.144;2023-08-30T11:33:35;99149.72;;;25.09
80422;BMP280;69763;50.182;9.144;2023-08-30T11:36:00;99156.69;;;24.89
80422;BMP280;69763;50.182;9.144;2023-08-30T11:38:26;99168.31;;;24.46
80422;BMP280;69763;50.182;9.144;2023-08-30T11:40:51;99154.22;;;24.20
80422;BMP280;69763;50.182;9.144;2023-08-30T11:43:19;99152.19;;;24.21
80422;BMP280;69763;50.182;9.144;2023-08-30T11:45:44;99150.22;;;24.43
80422;BMP280;69763;50.182;9.144;2023-08-30T11:48:11;99150.91;;;24.43
80422;BMP280;69763;50.182;9.144;2023-08-30T11:50:36;99154.66;;;24.32
80422;BMP280;69763;50.182;9.144;2023-08-30T11:53:03;99150.34;;;24.27
80422;BMP280;69763;50.182;9.144;2023-08-30T11:55:28;99143.31;;;24.24
80422;BMP280;69763;50.182;9.144;2023-08-30T11:57:54;99143.88;;;24.03
80422;BMP280;69763;50.182;9.144;2023-08-30T12:00:22;99141.66;;;24.17
80422;BMP280;69763;50.182;9.144;2023-08-30T12:02:48;99142.03;;;24.27
80422;BMP280;69763;50.182;9.144;2023-08-30T12:05:13;99143.19;;;24.40
80422;BMP280;69763;50.182;9.144;2023-08-30T12:07:39;99142.56;;;24.41
80422;BMP280;69763;50.182;9.144;2023-08-30T12:10:05;99135.53;;;24.38
80422;BMP280;69763;50.182;9.144;2023-08-30T12:12:30;99140.53;;;24.24
80422;BMP280;69763;50.182;9.144;2023-08-30T12:14:56;99135.59;;;24.03
80422;BMP280;69763;50.182;9.144;2023-08-30T12:17:23;99131.03;;;23.92
80422;BMP280;69763;50.182;9.144;2023-08-30T12:19:55;99127.91;;;23.82
80422;BMP280;69763;50.182;9.144;2023-08-30T12:22:20;99125.13;;;23.82
80422;BMP280;69763;50.182;9.144;2023-08-30T12:24:46;99121.75;;;23.66
80422;BMP280;69763;50.182;9.144;2023-08-30T12:27:12;99126.78;;;23.54
80422;BMP280;69763;50.182;9.144;2023-08-30T12:29:37;99123.84;;;23.49
80422;BMP280;69763;50.182;9.144;2023-08-30T12:32:03;99120.31;;;23.82
80422;BMP280;69763;50.182;9.144;2023-08-30T12:34:30;99117.00;;;23.86
80422;BMP280;69763;50.182;9.144;2023-08-30T12:36:55;99116.28;;;23.85
80422;BMP280;69763;50.182;9.144;2023-08-30T12:39:21;99117.59;;;23.84
80422;BMP280;69763;50.182;9.144;2023-08-30T12:41:46;99112.31;;;24.10
80422;BMP280;69763;50.182;9.144;2023-08-30T12:44:11;99104.91;;;24.54
80422;BMP280;69763;50.182;9.144;2023-08-30T12:46:37;99103.50;;;25.16
80422;BMP280;69763;50.182;9.144;2023-08-30T12:49:02;99103.88;;;25.74
80422;BMP280;69763;50.182;9.144;2023-08-30T12:51:29;99102.34;;;25.92
80422;BMP280;69763;50.182;9.144;2023-08-30T12:53:55;99111.66;;;25.79
80422;BMP280;69763;50.182;9.144;2023-08-30T12:56:20;99103.13;;;25.95
80422;BMP280;69763;50.182;9.144;2023-08-30T12:58:46;99112.06;;;25.93
80422;BMP280;69763;50.182;9.144;2023-08-30T13:01:11;99116.09;;;25.64
80422;BMP280;69763;50.182;9.144;2023-08-30T13:03:37;99116.84;;;25.43
80422;BMP280;69763;50.182;9.144;2023-08-30T13:06:02;99115.88;;;25.35
80422;BMP280;69763;50.182;9.144;2023-08-30T13:08:29;99110.22;;;25.31
80422;BMP280;69763;50.182;9.144;2023-08-30T13:10:54;99102.44;;;25.49
80422;BMP280;69763;50.182;9.144;2023-08-30T13:13:20;99099.13;;;25.54
80422;BMP280;69763;50.182;9.144;2023-08-30T13:15:45;99103.19;;;25.28
80422;BMP280;69763;50.182;9.144;2023-08-30T13:18:10;99104.22;;;25.17
80422;BMP280;69763;50.182;9.144;2023-08-30T13:20:38;99103.03;;;25.02
80422;BMP280;69763;50.182;9.144;2023-08-30T13:23:03;99098.91;;;24.81
80422;BMP280;69763;50.182;9.144;2023-08-30T13:25:30;99090.53;;;24.59
80422;BMP280;69763;50.182;9.144;2023-08-30T13:27:55;99099.56;;;24.60
80422;BMP280;69763;50.182;9.144;2023-08-30T13:30:21;99091.63;;;24.50
80422;BMP280;69763;50.182;9.144;2023-08-30T13:32:46;99095.00;;;24.49
80422;BMP280;69763;50.182;9.144;2023-08-30T13:35:11;99086.06;;;24.70
80422;BMP280;69763;50.182;9.144;2023-08-30T13:37:37;99087.44;;;24.91
80422;BMP280;69763;50.182;9.144;2023-08-30T13:40:03;99088.22;;;25.15
80422;BMP280;69763;50.182;9.144;2023-08-30T13:42:29;99089.56;;;25.36
80422;BMP280;69763;50.182;9.144;2023-08-30T13:44:55;99085.63;;;25.43
80422;BMP280;69763;50.182;9.144;2023-08-30T13:47:20;99084.16;;;25.63
80422;BMP280;69763;50.182;9.144;2023-08-30T13:49:46;99081.13;;;25.55
80422;BMP280;69763;50.182;9.144;2023-08-30T13:52:11;99084.09;;;25.61
80422;BMP280;69763;50.182;9.144;2023-08-30T13:54:36;99076.66;;;25.68
80422;BMP280;69763;50.182;9.144;2023-08-30T13:57:02;99082.16;;;25.90
80422;BMP280;69763;50.182;9.144;2023-08-30T13:59:29;99079.06;;;25.80
80422;BMP280;69763;50.182;9.144;2023-08-30T14:01:54;99065.97;;;25.58
80422;BMP280;69763;50.182;9.144;2023-08-30T14:04:19;99073.00;;;25.61